sensor_id;sensor_type;location;lat;lon;timestamp;pressure;altitude;pressure_sealevel;temperature;humidity
11808;BME280;5961;42.640;23.380;2022-11-21T00:00:56;92775.63;;;11.83;100.00
11808;BME280;5961;42.640;23.380;2022-11-21T00:03:25;92768.78;;;11.82;100.00
11808;BME280;5961;42.640;23.380;2022-11-21T00:05:51;92773.25;;;11.71;100.00
11808;BME280;5961;42.640;23.380;2022-11-21T00:08:20;92772.53;;;11.74;100.00
11808;BME280;5961;42.640;23.380;2022-11-21T00:10:47;92747.38;;;11.68;100.00
11808;BME280;5961;42.640;23.380;2022-11-21T00:13:16;92746.66;;;11.71;100.00
11808;BME280;5961;42.640;23.380;2022-11-21T00:15:43;92749.38;;;11.78;100.00
11808;BME280;5961;42.640;23.380;2022-11-21T00:18:10;92744.81;;;11.82;100.00
11808;BME280;5961;42.640;23.380;2022-11-21T00:20:39;92747.16;;;11.87;100.00
11808;BME280;5961;42.640;23.380;2022-11-21T00:23:06;92739.09;;;11.80;100.00
11808;BME280;5961;42.640;23.380;2022-11-21T00:25:33;92732.69;;;11.88;100.00
11808;BME280;5961;42.640;23.380;2022-11-21T00:27:59;92707.63;;;11.92;100.00
11808;BME280;5961;42.640;23.380;2022-11-21T00:30:26;92709.53;;;11.92;100.00
11808;BME280;5961;42.640;23.380;2022-11-21T00:32:53;92675.31;;;11.97;100.00
11808;BME280;5961;42.640;23.380;2022-11-21T00:35:20;92668.84;;;11.95;100.00
11808;BME280;5961;42.640;23.380;2022-11-21T00:37:48;92658.56;;;11.97;100.00
11808;BME280;5961;42.640;23.380;2022-11-21T00:40:15;92675.72;;;12.03;100.00
11808;BME280;5961;42.640;23.380;2022-11-21T00:42:42;92674.59;;;12.04;100.00
11808;BME280;5961;42.640;23.380;2022-11-21T00:45:09;92695.53;;;12.02;100.00
11808;BME280;5961;42.640;23.380;2022-11-21T00:47:36;92696.66;;;12.04;100.00
11808;BME280;5961;42.640;23.380;2022-11-21T00:50:04;92714.53;;;12.04;100.00
11808;BME280;5961;42.640;23.380;2022-11-21T00:52:30;92676.09;;;11.98;100.00
11808;BME280;5961;42.640;23.380;2022-11-21T00:54:59;92699.34;;;12.08;100.00
11808;BME280;5961;42.640;23.380;2022-11-21T00:57:25;92695.84;;;11.97;100.00
11808;BME280;5961;42.640;23.380;2022-11-21T00:59:52;92682.59;;;12.04;100.00
11808;BME280;5961;42.640;23.380;2022-11-21T01:02:19;92668.13;;;12.01;100.00
11808;BME280;5961;42.640;23.380;2022-11-21T01:04:45;92663.91;;;11.97;100.00
11808;BME280;5961;42.640;23.380;2022-11-21T01:07:12;92670.06;;;12.08;100.00
11808;BME280;5961;42.640;23.380;2022-11-21T01:09:39;92681.09;;;12.10;100.00
11808;BME280;5961;42.640;23.380;2022-11-21T01:12:07;92668.94;;;12.13;100.00
11808;BME280;5961;42.640;23.380;2022-11-21T01:14:34;92676.16;;;12.12;100.00
11808;BME280;5961;42.640;23.380;2022-11-21T01:17:01;92666.25;;;12.13;100.00
11808;BME280;5961;42.640;23.380;2022-11-21T01:19:27;92668.16;;;12.12;100.00
11808;BME280;5961;42.640;23.380;2022-11-21T01:21:54;92654.81;;;12.01;100.00
11808;BME280;5961;42.640;23.380;2022-11-21T01:24:21;92679.91;;;12.04;100.00
11808;BME280;5961;42.640;23.380;2022-11-21T01:26:47;92654.81;;;12.01;100.00
11808;BME280;5961;42.640;23.380;2022-11-21T01:29:16;92677.63;;;12.06;100.00
11808;BME280;5961;42.640;23.380;2022-11-21T01:31:43;92654.84;;;12.05;100.00
11808;BME280;5961;42.640;23.380;2022-11-21T01:34:10;92641.09;;;12.03;100.00
11808;BME280;5961;42.640;23.380;2022-11-21T01:36:39;92651.00;;;11.99;100.00
11808;BME280;5961;42.640;23.380;2022-11-21T01:39:06;92641.88;;;11.96;100.00
11808;BME280;5961;42.640;23.380;2022-11-21T01:41:36;92654.06;;;12.04;100.00
11808;BME280;5961;42.640;23.380;2022-11-21T01:44:09;92651.06;;;12.13;100.00
11808;BME280;5961;42.640;23.380;2022-11-21T01:46:40;92641.91;;;12.07;100.00
11808;BME280;5961;42.640;23.380;2022-11-21T01:49:10;92652.59;;;12.18;100.00
11808;BME280;5961;42.640;23.380;2022-11-21T01:51:41;92648.81;;;12.22;100.00
11808;BME280;5961;42.640;23.380;2022-11-21T01:54:12;92652.25;;;12.26;100.00
11808;BME280;5961;42.640;23.380;2022-11-21T01:56:42;92680.06;;;12.32;100.00
11808;BME280;5961;42.640;23.380;2022-11-21T01:59:15;92671.69;;;12.37;100.00
11808;BME280;5961;42.640;23.380;2022-11-21T02:01:45;92675.50;;;12.43;100.00
11808;BME280;5961;42.640;23.380;2022-11-21T02:04:14;92688.47;;;12.48;100.00
11808;BME280;5961;42.640;23.380;2022-11-21T02:06:41;92670.97;;;12.54;100.00
11808;BME280;5961;42.640;23.380;2022-11-21T02:09:08;92660.72;;;12.60;100.00
11808;BME280;5961;42.640;23.380;2022-11-21T02:11:38;92671.78;;;12.62;100.00
11808;BME280;5961;42.640;23.380;2022-11-21T02:14:06;92698.41;;;12.62;100.00
11808;BME280;5961;42.640;23.380;2022-11-21T02:16:32;92701.44;;;12.50;100.00
11808;BME280;5961;42.640;23.380;2022-11-21T02:19:01;92688.50;;;12.55;100.00
11808;BME280;5961;42.640;23.380;2022-11-21T02:21:36;92675.97;;;12.59;100.00
11808;BME280;5961;42.640;23.380;2022-11-21T02:24:12;92600.06;;;12.11;100.00
11808;BME280;5961;42.640;23.380;2022-11-21T02:26:43;92680.91;;;12.54;100.00
11808;BME280;5961;42.640;23.380;2022-11-21T02:29:12;92698.38;;;12.44;100.00
11808;BME280;5961;42.640;23.380;2022-11-21T02:31:39;92675.13;;;12.48;100.00
11808;BME280;5961;42.640;23.380;2022-11-21T02:34:06;92682.75;;;12.46;100.00
11808;BME280;5961;42.640;23.380;2022-11-21T02:36:38;92678.22;;;12.50;100.00
11808;BME280;5961;42.640;23.380;2022-11-21T02:39:06;92651.94;;;12.49;100.00
11808;BME280;5961;42.640;23.380;2022-11-21T02:41:34;92638.59;;;12.49;100.00
11808;BME280;5961;42.640;23.380;2022-11-21T02:44:07;92655.34;;;12.42;100.00
11808;BME280;5961;42.640;23.380;2022-11-21T02:46:35;92658.00;;;12.35;100.00
11808;BME280;5961;42.640;23.380;2022-11-21T02:49:05;92641.25;;;12.38;100.00
11808;BME280;5961;42.640;23.380;2022-11-21T02:51:32;92626.78;;;12.39;100.00
11808;BME280;5961;42.640;23.380;2022-11-21T02:53:59;92602.44;;;12.37;100.00
11808;BME280;5961;42.640;23.380;2022-11-21T02:56:26;92589.47;;;12.29;100.00
11808;BME280;5961;42.640;23.380;2022-11-21T02:58:52;92607.75;;;12.37;100.00
11808;BME280;5961;42.640;23.380;2022-11-21T03:01:21;92594.78;;;12.25;100.00
11808;BME280;5961;42.640;23.380;2022-11-21T03:03:47;92618.41;;;12.37;100.00
11808;BME280;5961;42.640;23.380;2022-11-21T03:06:14;92610.44;;;12.41;100.00
11808;BME280;5961;42.640;23.380;2022-11-21T03:08:40;92615.75;;;12.37;100.00
11808;BME280;5961;42.640;23.380;2022-11-21T03:11:07;92611.56;;;12.40;100.00
11808;BME280;5961;42.640;23.380;2022-11-21T03:13:34;92595.97;;;12.42;100.00
11808;BME280;5961;42.640;23.380;2022-11-21T03:16:00;92599.03;;;12.44;100.00
11808;BME280;5961;42.640;23.380;2022-11-21T03:18:28;92598.63;;;12.38;100.00
11808;BME280;5961;42.640;23.380;2022-11-21T03:20:56;92611.19;;;12.41;100.00
11808;BME280;5961;42.640;23.380;2022-11-21T03:23:23;92613.47;;;12.39;100.00
11808;BME280;5961;42.640;23.380;2022-11-21T03:25:50;92619.19;;;12.41;100.00
11808;BME280;5961;42.640;23.380;2022-11-21T03:28:16;92613.88;;;12.41;100.00
11808;BME280;5961;42.640;23.380;2022-11-21T03:30:43;92617.28;;;12.49;100.00
11808;BME280;5961;42.640;23.380;2022-11-21T03:33:10;92616.94;;;12.54;100.00
11808;BME280;5961;42.640;23.380;2022-11-21T03:35:38;92617.31;;;12.56;100.00
11808;BME280;5961;42.640;23.380;2022-11-21T03:38:04;92608.56;;;12.55;100.00
11808;BME280;5961;42.640;23.380;2022-11-21T03:40:31;92613.50;;;12.60;100.00
11808;BME280;5961;42.640;23.380;2022-11-21T03:43:03;92612.00;;;12.70;100.00
11808;BME280;5961;42.640;23.380;2022-11-21T03:45:30;92619.63;;;12.72;99.67
11808;BME280;5961;42.640;23.380;2022-11-21T03:47:56;92615.44;;;12.78;98.78
11808;BME280;5961;42.640;23.380;2022-11-21T03:50:23;92601.34;;;12.81;98.66
11808;BME280;5961;42.640;23.380;2022-11-21T03:52:51;92602.50;;;12.87;99.29
11808;BME280;5961;42.640;23.380;2022-11-21T03:55:18;92599.44;;;12.92;99.59
11808;BME280;5961;42.640;23.380;2022-11-21T03:57:44;92595.66;;;12.93;99.08
11808;BME280;5961;42.640;23.380;2022-11-21T04:00:12;92597.16;;;12.94;99.83
11808;BME280;5961;42.640;23.380;2022-11-21T04:02:39;92587.25;;;12.98;98.85
11808;BME280;5961;42.640;23.380;2022-11-21T04:05:06;92589.16;;;13.01;97.38
11808;BME280;5961;42.640;23.380;2022-11-21T04:07:33;92596.78;;;12.99;99.00
11808;BME280;5961;42.640;23.380;2022-11-21T04:10:01;92578.50;;;13.01;99.56
11808;BME280;5961;42.640;23.380;2022-11-21T04:12:28;92583.84;;;12.97;98.82
11808;BME280;5961;42.640;23.380;2022-11-21T04:14:54;92577.34;;;12.95;98.41
11808;BME280;5961;42.640;23.380;2022-11-21T04:17:21;92573.56;;;12.96;98.43
11808;BME280;5961;42.640;23.380;2022-11-21T04:19:48;92562.13;;;12.92;98.31
11808;BME280;5961;42.640;23.380;2022-11-21T04:22:14;92579.66;;;12.93;98.58
11808;BME280;5961;42.640;23.380;2022-11-21T04:24:41;92565.94;;;12.94;97.14
11808;BME280;5961;42.640;23.380;2022-11-21T04:27:09;92563.63;;;12.96;95.93
11808;BME280;5961;42.640;23.380;2022-11-21T04:29:36;92583.84;;;12.97;97.86
11808;BME280;5961;42.640;23.380;2022-11-21T04:32:03;92598.69;;;12.98;98.24
11808;BME280;5961;42.640;23.380;2022-11-21T04:34:29;92586.50;;;13.01;97.12
11808;BME280;5961;42.640;23.380;2022-11-21T04:36:56;92571.66;;;12.93;97.42
11808;BME280;5961;42.640;23.380;2022-11-21T04:39:23;92581.91;;;12.91;97.56
11808;BME280;5961;42.640;23.380;2022-11-21T04:41:49;92585.72;;;12.97;99.21
11808;BME280;5961;42.640;23.380;2022-11-21T04:44:17;92600.97;;;13.00;98.24
11808;BME280;5961;42.640;23.380;2022-11-21T04:46:44;92602.88;;;13.03;97.83
11808;BME280;5961;42.640;23.380;2022-11-21T04:49:11;92597.16;;;13.01;96.44
11808;BME280;5961;42.640;23.380;2022-11-21T04:51:37;92609.34;;;13.05;96.05
11808;BME280;5961;42.640;23.380;2022-11-21T04:54:04;92626.16;;;13.09;94.69
11808;BME280;5961;42.640;23.380;2022-11-21T04:56:31;92614.69;;;12.95;97.32
11808;BME280;5961;42.640;23.380;2022-11-21T04:58:57;92630.69;;;12.88;98.07
11808;BME280;5961;42.640;23.380;2022-11-21T05:01:25;92645.94;;;12.87;94.52
11808;BME280;5961;42.640;23.380;2022-11-21T05:03:52;92644.41;;;12.86;97.83
11808;BME280;5961;42.640;23.380;2022-11-21T05:06:19;92629.94;;;12.87;99.54
11808;BME280;5961;42.640;23.380;2022-11-21T05:08:45;92612.41;;;12.83;100.00
11808;BME280;5961;42.640;23.380;2022-11-21T05:11:12;92623.03;;;12.76;99.90
11808;BME280;5961;42.640;23.380;2022-11-21T05:13:56;92647.78;;;12.73;99.47
11808;BME280;5961;42.640;23.380;2022-11-21T05:16:22;92639.41;;;12.71;99.98
11808;BME280;5961;42.640;23.380;2022-11-21T05:18:50;92650.47;;;12.65;100.00
11808;BME280;5961;42.640;23.380;2022-11-21T05:21:17;92678.63;;;12.66;100.00
11808;BME280;5961;42.640;23.380;2022-11-21T05:23:44;92683.22;;;12.66;100.00
11808;BME280;5961;42.640;23.380;2022-11-21T05:26:10;92661.88;;;12.59;100.00
11808;BME280;5961;42.640;23.380;2022-11-21T05:28:37;92637.09;;;12.51;100.00
11808;BME280;5961;42.640;23.380;2022-11-21T05:31:04;92656.53;;;12.55;100.00
11808;BME280;5961;42.640;23.380;2022-11-21T05:33:30;92654.59;;;12.52;100.00
11808;BME280;5961;42.640;23.380;2022-11-21T05:35:58;92666.41;;;12.51;98.95
11808;BME280;5961;42.640;23.380;2022-11-21T05:38:25;92687.34;;;12.49;99.45
11808;BME280;5961;42.640;23.380;2022-11-21T05:40:52;92693.03;;;12.51;100.00
11808;BME280;5961;42.640;23.380;2022-11-21T05:43:18;92690.00;;;12.49;99.83
11808;BME280;5961;42.640;23.380;2022-11-21T05:46:03;92680.09;;;12.46;99.75
11808;BME280;5961;42.640;23.380;2022-11-21T05:48:29;92694.53;;;12.45;98.91
11808;BME280;5961;42.640;23.380;2022-11-21T05:50:56;92688.47;;;12.41;97.97
11808;BME280;5961;42.640;23.380;2022-11-21T05:53:24;92684.63;;;12.32;97.69
11808;BME280;5961;42.640;23.380;2022-11-21T05:55:51;92681.56;;;12.26;99.33
11808;BME280;5961;42.640;23.380;2022-11-21T05:58:17;92705.13;;;12.24;100.00
11808;BME280;5961;42.640;23.380;2022-11-21T06:00:44;92709.28;;;12.18;100.00
11808;BME280;5961;42.640;23.380;2022-11-21T06:03:11;92654.31;;;11.78;100.00
11808;BME280;5961;42.640;23.380;2022-11-21T06:05:57;92711.84;;;12.00;98.36
11808;BME280;5961;42.640;23.380;2022-11-21T06:08:25;92730.81;;;11.92;97.38
11808;BME280;5961;42.640;23.380;2022-11-21T06:10:53;92704.72;;;11.61;98.00
11808;BME280;5961;42.640;23.380;2022-11-21T06:13:20;92739.09;;;11.80;96.79
11808;BME280;5961;42.640;23.380;2022-11-21T06:15:51;92733.66;;;11.66;95.62
11808;BME280;5961;42.640;23.380;2022-11-21T06:18:19;92754.94;;;11.62;95.45
11808;BME280;5961;42.640;23.380;2022-11-21T06:20:46;92784.50;;;11.53;96.48
11808;BME280;5961;42.640;23.380;2022-11-21T06:23:12;92782.22;;;11.55;96.03
11808;BME280;5961;42.640;23.380;2022-11-21T06:25:41;92790.56;;;11.50;96.30
11808;BME280;5961;42.640;23.380;2022-11-21T06:28:09;92781.41;;;11.44;95.02
11808;BME280;5961;42.640;23.380;2022-11-21T06:30:36;92771.41;;;11.34;95.26
11808;BME280;5961;42.640;23.380;2022-11-21T06:33:03;92779.78;;;11.33;94.54
11808;BME280;5961;42.640;23.380;2022-11-21T06:35:31;92820.66;;;11.18;94.63
11808;BME280;5961;42.640;23.380;2022-11-21T06:37:58;92814.53;;;11.14;95.13
11808;BME280;5961;42.640;23.380;2022-11-21T06:40:25;92823.81;;;10.97;94.31
11808;BME280;5961;42.640;23.380;2022-11-21T06:42:53;92837.78;;;10.87;94.32
11808;BME280;5961;42.640;23.380;2022-11-21T06:45:19;92822.84;;;10.79;94.23
11808;BME280;5961;42.640;23.380;2022-11-21T06:47:46;92831.34;;;10.58;94.09
11808;BME280;5961;42.640;23.380;2022-11-21T06:50:13;92833.50;;;10.49;94.37
11808;BME280;5961;42.640;23.380;2022-11-21T06:52:40;92837.91;;;10.38;94.78
11808;BME280;5961;42.640;23.380;2022-11-21T06:55:08;92870.56;;;10.38;94.29
11808;BME280;5961;42.640;23.380;2022-11-21T06:57:34;92865.72;;;10.18;94.45
11808;BME280;5961;42.640;23.380;2022-11-21T07:00:03;92880.81;;;10.14;94.91
11808;BME280;5961;42.640;23.380;2022-11-21T07:02:30;92912.47;;;10.03;94.74
11808;BME280;5961;42.640;23.380;2022-11-21T07:04:57;92924.03;;;9.91;94.51
11808;BME280;5961;42.640;23.380;2022-11-21T07:07:23;92921.84;;;9.74;94.25
11808;BME280;5961;42.640;23.380;2022-11-21T07:09:50;92939.56;;;9.48;95.86
11808;BME280;5961;42.640;23.380;2022-11-21T07:12:17;92919.59;;;9.54;95.49
11808;BME280;5961;42.640;23.380;2022-11-21T07:15:02;92943.06;;;9.32;95.84
11808;BME280;5961;42.640;23.380;2022-11-21T07:17:29;92938.13;;;9.12;96.85
11808;BME280;5961;42.640;23.380;2022-11-21T07:19:56;92920.75;;;8.95;97.04
11808;BME280;5961;42.640;23.380;2022-11-21T07:22:22;92922.00;;;8.82;97.79
11808;BME280;5961;42.640;23.380;2022-11-21T07:24:49;92953.75;;;8.63;99.44
11808;BME280;5961;42.640;23.380;2022-11-21T07:27:16;92958.56;;;8.57;99.88
11808;BME280;5961;42.640;23.380;2022-11-21T07:29:42;92954.13;;;8.46;100.00
11808;BME280;5961;42.640;23.380;2022-11-21T07:32:10;92957.88;;;8.45;100.00
11808;BME280;5961;42.640;23.380;2022-11-21T07:34:37;92951.16;;;8.32;100.00
11808;BME280;5961;42.640;23.380;2022-11-21T07:37:04;92964.22;;;8.24;100.00
11808;BME280;5961;42.640;23.380;2022-11-21T07:39:30;92983.66;;;8.16;100.00
11808;BME280;5961;42.640;23.380;2022-11-21T07:41:57;92959.75;;;8.13;100.00
11808;BME280;5961;42.640;23.380;2022-11-21T07:44:24;92957.97;;;8.01;100.00
11808;BME280;5961;42.640;23.380;2022-11-21T07:46:53;92990.84;;;8.00;100.00
11808;BME280;5961;42.640;23.380;2022-11-21T07:49:21;92981.44;;;7.87;100.00
11808;BME280;5961;42.640;23.380;2022-11-21T07:51:48;92976.63;;;7.77;100.00
11808;BME280;5961;42.640;23.380;2022-11-21T07:54:15;92980.91;;;7.66;100.00
11808;BME280;5961;42.640;23.380;2022-11-21T07:56:42;92997.25;;;7.56;100.00
11808;BME280;5961;42.640;23.380;2022-11-21T07:59:08;93011.47;;;7.51;100.00
11808;BME280;5961;42.640;23.380;2022-11-21T08:01:35;92998.50;;;7.46;100.00
11808;BME280;5961;42.640;23.380;2022-11-21T08:04:02;93022.63;;;7.45;100.00
11808;BME280;5961;42.640;23.380;2022-11-21T08:06:30;93020.75;;;7.45;100.00
11808;BME280;5961;42.640;23.380;2022-11-21T08:08:57;93020.91;;;7.37;100.00
11808;BME280;5961;42.640;23.380;2022-11-21T08:11:23;93034.59;;;7.27;100.00
11808;BME280;5961;42.640;23.380;2022-11-21T08:13:50;93033.38;;;7.24;100.00
11808;BME280;5961;42.640;23.380;2022-11-21T08:16:17;93046.28;;;7.13;100.00
11808;BME280;5961;42.640;23.380;2022-11-21T08:18:44;93044.22;;;7.07;100.00
11808;BME280;5961;42.640;23.380;2022-11-21T08:21:10;93047.28;;;7.09;100.00
11808;BME280;5961;42.640;23.380;2022-11-21T08:23:38;93045.63;;;7.16;100.00
11808;BME280;5961;42.640;23.380;2022-11-21T08:26:07;93042.13;;;7.12;100.00
11808;BME280;5961;42.640;23.380;2022-11-21T08:28:35;93048.50;;;7.11;100.00
11808;BME280;5961;42.640;23.380;2022-11-21T08:31:03;93035.00;;;7.01;100.00
11808;BME280;5961;42.640;23.380;2022-11-21T08:33:30;93039.91;;;7.14;100.00
11808;BME280;5961;42.640;23.380;2022-11-21T08:35:56;93043.09;;;7.08;100.00
11808;BME280;5961;42.640;23.380;2022-11-21T08:38:23;93026.31;;;6.88;100.00
11808;BME280;5961;42.640;23.380;2022-11-21T08:40:51;93048.50;;;7.11;100.00
11808;BME280;5961;42.640;23.380;2022-11-21T08:43:38;93051.81;;;7.08;100.00
11808;BME280;5961;42.640;23.380;2022-11-21T08:46:04;93049.13;;;7.21;100.00
11808;BME280;5961;42.640;23.380;2022-11-21T08:48:31;93051.00;;;7.20;100.00
11808;BME280;5961;42.640;23.380;2022-11-21T08:50:58;93042.53;;;7.14;100.00
11808;BME280;5961;42.640;23.380;2022-11-21T08:53:25;93049.34;;;7.28;100.00
11808;BME280;5961;42.640;23.380;2022-11-21T08:55:54;93041.34;;;7.12;100.00
11808;BME280;5961;42.640;23.380;2022-11-21T08:58:20;93037.50;;;7.09;100.00
11808;BME280;5961;42.640;23.380;2022-11-21T09:00:47;93045.63;;;7.04;100.00
11808;BME280;5961;42.640;23.380;2022-11-21T09:03:14;93053.66;;;7.08;100.00
11808;BME280;5961;42.640;23.380;2022-11-21T09:05:40;93054.03;;;7.06;100.00
11808;BME280;5961;42.640;23.380;2022-11-21T09:08:07;93051.81;;;7.08;100.00
11808;BME280;5961;42.640;23.380;2022-11-21T09:10:34;93062.47;;;7.12;100.00
11808;BME280;5961;42.640;23.380;2022-11-21T09:13:02;93069.41;;;7.04;100.00
11808;BME280;5961;42.640;23.380;2022-11-21T09:15:28;93079.00;;;7.09;100.00
11808;BME280;5961;42.640;23.380;2022-11-21T09:18:12;93089.69;;;7.00;100.00
11808;BME280;5961;42.640;23.380;2022-11-21T09:20:41;93079.44;;;6.99;100.00
11808;BME280;5961;42.640;23.380;2022-11-21T09:23:10;93094.97;;;7.12;100.00
11808;BME280;5961;42.640;23.380;2022-11-21T09:25:37;93109.47;;;7.18;100.00
11808;BME280;5961;42.640;23.380;2022-11-21T09:28:07;93086.66;;;7.26;100.00
11808;BME280;5961;42.640;23.380;2022-11-21T09:30:34;93057.97;;;7.12;100.00
11808;BME280;5961;42.640;23.380;2022-11-21T09:33:01;93081.25;;;7.35;100.00
11808;BME280;5961;42.640;23.380;2022-11-21T09:35:29;93092.69;;;7.39;100.00
11808;BME280;5961;42.640;23.380;2022-11-21T09:37:56;93085.19;;;7.41;100.00
11808;BME280;5961;42.640;23.380;2022-11-21T09:40:23;93099.63;;;7.43;100.00
11808;BME280;5961;42.640;23.380;2022-11-21T09:42:58;93088.72;;;7.45;100.00
11808;BME280;5961;42.640;23.380;2022-11-21T09:45:31;93089.34;;;7.54;100.00
11808;BME280;5961;42.640;23.380;2022-11-21T09:48:02;93092.66;;;7.51;100.00
11808;BME280;5961;42.640;23.380;2022-11-21T09:50:31;93100.03;;;7.57;100.00
11808;BME280;5961;42.640;23.380;2022-11-21T09:53:02;93090.91;;;7.55;99.51
11808;BME280;5961;42.640;23.380;2022-11-21T09:55:38;93093.19;;;7.56;98.43
11808;BME280;5961;42.640;23.380;2022-11-21T09:58:15;93076.50;;;7.40;98.33
11808;BME280;5961;42.640;23.380;2022-11-21T10:00:49;93117.72;;;7.69;98.32
11808;BME280;5961;42.640;23.380;2022-11-21T10:03:16;93114.84;;;7.74;99.34
11808;BME280;5961;42.640;23.380;2022-11-21T10:05:47;93101.19;;;7.72;98.81
11808;BME280;5961;42.640;23.380;2022-11-21T10:08:26;93128.81;;;7.74;99.65
11808;BME280;5961;42.640;23.380;2022-11-21T10:10:56;93131.78;;;7.85;99.18
11808;BME280;5961;42.640;23.380;2022-11-21T10:13:45;93125.03;;;7.88;98.31
11808;BME280;5961;42.640;23.380;2022-11-21T10:16:20;93120.31;;;7.81;99.63
11808;BME280;5961;42.640;23.380;2022-11-21T10:19:03;93126.50;;;7.85;99.49
11808;BME280;5961;42.640;23.380;2022-11-21T10:21:55;93126.97;;;7.75;99.35
11808;BME280;5961;42.640;23.380;2022-11-21T10:24:36;93128.69;;;7.83;99.66
11808;BME280;5961;42.640;23.380;2022-11-21T10:27:11;93142.56;;;7.80;98.76
11808;BME280;5961;42.640;23.380;2022-11-21T10:29:44;93143.50;;;7.72;100.00
11808;BME280;5961;42.640;23.380;2022-11-21T10:32:20;93132.72;;;7.65;100.00
11808;BME280;5961;42.640;23.380;2022-11-21T10:34:50;93132.25;;;7.75;100.00
11808;BME280;5961;42.640;23.380;2022-11-21T10:37:27;93123.78;;;7.69;100.00
11808;BME280;5961;42.640;23.380;2022-11-21T10:39:59;93121.38;;;7.64;100.00
11808;BME280;5961;42.640;23.380;2022-11-21T10:42:33;93133.94;;;7.67;99.99
11808;BME280;5961;42.640;23.380;2022-11-21T10:45:02;93117.63;;;7.65;100.00
11808;BME280;5961;42.640;23.380;2022-11-21T10:47:43;93140.22;;;7.63;100.00
11808;BME280;5961;42.640;23.380;2022-11-21T10:50:22;93138.66;;;7.62;100.00
11808;BME280;5961;42.640;23.380;2022-11-21T10:53:00;93103.19;;;7.23;100.00
11808;BME280;5961;42.640;23.380;2022-11-21T10:55:57;93120.66;;;7.52;100.00
11808;BME280;5961;42.640;23.380;2022-11-21T10:58:36;93121.09;;;7.42;100.00
11808;BME280;5961;42.640;23.380;2022-11-21T11:01:05;93138.06;;;7.41;100.00
11808;BME280;5961;42.640;23.380;2022-11-21T11:03:33;93127.19;;;7.30;100.00
11808;BME280;5961;42.640;23.380;2022-11-21T11:06:00;93112.56;;;7.21;100.00
11808;BME280;5961;42.640;23.380;2022-11-21T11:08:27;93104.31;;;7.22;100.00
11808;BME280;5961;42.640;23.380;2022-11-21T11:11:01;93116.84;;;7.25;100.00
11808;BME280;5961;42.640;23.380;2022-11-21T11:13:30;93114.22;;;7.25;100.00
11808;BME280;5961;42.640;23.380;2022-11-21T11:16:03;93125.88;;;7.12;100.00
11808;BME280;5961;42.640;23.380;2022-11-21T11:18:31;93138.31;;;7.24;100.00
11808;BME280;5961;42.640;23.380;2022-11-21T11:21:14;93116.63;;;7.18;100.00
11808;BME280;5961;42.640;23.380;2022-11-21T11:23:41;93118.28;;;7.10;100.00
11808;BME280;5961;42.640;23.380;2022-11-21T11:26:23;93117.84;;;7.08;100.00
11808;BME280;5961;42.640;23.380;2022-11-21T11:28:51;93120.59;;;7.12;100.00
11808;BME280;5961;42.640;23.380;2022-11-21T11:31:18;93111.34;;;7.06;100.00
11808;BME280;5961;42.640;23.380;2022-11-21T11:33:53;93136.56;;;7.03;100.00
11808;BME280;5961;42.640;23.380;2022-11-21T11:36:33;93091.56;;;6.76;100.00
11808;BME280;5961;42.640;23.380;2022-11-21T11:39:09;93113.66;;;7.07;100.00
11808;BME280;5961;42.640;23.380;2022-11-21T11:41:54;93116.75;;;7.22;100.00
11808;BME280;5961;42.640;23.380;2022-11-21T11:44:50;93114.53;;;7.11;100.00
11808;BME280;5961;42.640;23.380;2022-11-21T11:47:42;93117.19;;;7.11;100.00
11808;BME280;5961;42.640;23.380;2022-11-21T11:50:16;93112.44;;;7.17;100.00
11808;BME280;5961;42.640;23.380;2022-11-21T11:52:53;93112.78;;;7.28;100.00
11808;BME280;5961;42.640;23.380;2022-11-21T11:55:25;93124.84;;;7.29;100.00
11808;BME280;5961;42.640;23.380;2022-11-21T11:57:59;93127.84;;;7.27;100.00
11808;BME280;5961;42.640;23.380;2022-11-21T12:00:35;93103.41;;;7.18;100.00
11808;BME280;5961;42.640;23.380;2022-11-21T12:03:11;93125.75;;;7.33;100.00
11808;BME280;5961;42.640;23.380;2022-11-21T12:05:50;93118.25;;;7.35;99.27
11808;BME280;5961;42.640;23.380;2022-11-21T12:08:24;93129.41;;;7.28;99.87
11808;BME280;5961;42.640;23.380;2022-11-21T12:10:55;93135.88;;;7.43;100.00
11808;BME280;5961;42.640;23.380;2022-11-21T12:13:40;93134.06;;;7.47;98.10
11808;BME280;5961;42.640;23.380;2022-11-21T12:16:11;93153.16;;;7.52;98.21
11808;BME280;5961;42.640;23.380;2022-11-21T12:18:45;93138.38;;;7.51;97.39
11808;BME280;5961;42.640;23.380;2022-11-21T12:21:14;93148.44;;;7.34;97.51
11808;BME280;5961;42.640;23.380;2022-11-21T12:23:45;93117.84;;;7.21;97.58
11808;BME280;5961;42.640;23.380;2022-11-21T12:26:30;93139.84;;;7.37;96.78
11808;BME280;5961;42.640;23.380;2022-11-21T12:29:06;93136.53;;;7.40;96.51
11808;BME280;5961;42.640;23.380;2022-11-21T12:31:49;93141.94;;;7.43;97.50
11808;BME280;5961;42.640;23.380;2022-11-21T12:34:37;93148.31;;;7.42;96.19
11808;BME280;5961;42.640;23.380;2022-11-21T12:37:17;93146.09;;;7.44;96.58
11808;BME280;5961;42.640;23.380;2022-11-21T12:40:07;93159.84;;;7.50;95.68
11808;BME280;5961;42.640;23.380;2022-11-21T12:42:40;93162.69;;;7.57;94.95
11808;BME280;5961;42.640;23.380;2022-11-21T12:45:28;93155.19;;;7.59;94.82
11808;BME280;5961;42.640;23.380;2022-11-21T12:48:18;93163.34;;;7.66;95.00
11808;BME280;5961;42.640;23.380;2022-11-21T12:54:30;93172.06;;;7.66;94.14
11808;BME280;5961;42.640;23.380;2022-11-21T12:57:07;93160.13;;;7.72;93.29
11808;BME280;5961;42.640;23.380;2022-11-21T12:59:44;93163.22;;;7.74;93.77
11808;BME280;5961;42.640;23.380;2022-11-21T13:02:23;93166.38;;;7.80;93.48
11808;BME280;5961;42.640;23.380;2022-11-21T13:04:53;93174.09;;;7.85;93.16
11808;BME280;5961;42.640;23.380;2022-11-21T13:07:23;93166.69;;;7.91;93.28
11808;BME280;5961;42.640;23.380;2022-11-21T13:09:53;93170.53;;;7.93;92.77
11808;BME280;5961;42.640;23.380;2022-11-21T13:12:28;93165.47;;;8.00;97.26
11808;BME280;5961;42.640;23.380;2022-11-21T13:15:03;93167.31;;;8.00;93.37